Time;durP1;ratioP1;P1;durP2;ratioP2;P2;SDS_P1;SDS_P2;PMS_P1;PMS_P2;Temp;Humidity;BMP_temperature;BMP_pressure;BME280_temperature;BME280_humidity;BME280_pressure;Samples;Min_cycle;Max_cycle;Signal;HPM_P1;HPM_P2
2022/10/22 00:00:45;;;;;;;49.60;29.15;;;;;;;;;;4942406;29;20044;-79
2022/10/22 00:03:31;;;;;;;40.17;23.85;;;;;;;;;;4936160;29;20052;-77
2022/10/22 00:06:16;;;;;;;43.83;24.30;;;;;;;;;;4936202;29;20413;-77
2022/10/22 00:09:02;;;;;;;44.08;24.65;;;;;;;;;;4936008;29;20040;-75
2022/10/22 00:11:47;;;;;;;50.47;25.70;;;;;;;;;;4936034;29;20044;-75
2022/10/22 00:14:33;;;;;;;43.20;25.20;;;;;;;;;;4936021;29;20036;-78
2022/10/22 00:17:19;;;;;;;53.97;25.90;;;;;;;;;;4936247;29;20052;-77
2022/10/22 00:20:05;;;;;;;45.13;26.35;;;;;;;;;;4936005;29;20044;-75
2022/10/22 00:22:51;;;;;;;46.85;25.98;;;;;;;;;;4942106;29;20051;-78
2022/10/22 00:25:36;;;;;;;42.45;26.27;;;;;;;;;;4936143;29;20048;-76
2022/10/22 00:28:23;;;;;;;57.97;27.13;;;;;;;;;;4936051;29;20059;-76
2022/10/22 00:31:09;;;;;;;46.60;26.20;;;;;;;;;;4936216;29;20043;-75
2022/10/22 00:33:54;;;;;;;44.15;25.15;;;;;;;;;;4921496;29;20051;-78
2022/10/22 00:36:39;;;;;;;50.28;25.70;;;;;;;;;;4942152;29;20389;-77
2022/10/22 00:39:26;;;;;;;44.22;25.25;;;;;;;;;;4935893;29;20040;-76
2022/10/22 00:42:20;;;;;;;42.72;25.02;;;;;;;;;;4936147;29;20048;-76
2022/10/22 00:45:12;;;;;;;41.55;25.00;;;;;;;;;;4939082;29;20051;-76
2022/10/22 00:48:09;;;;;;;38.45;21.45;;;;;;;;;;4939286;29;20048;-76
2022/10/22 00:51:03;;;;;;;52.13;24.58;;;;;;;;;;4938780;29;20051;-76
2022/10/22 00:53:52;;;;;;;61.78;32.47;;;;;;;;;;4938930;29;20048;-76
2022/10/22 00:56:38;;;;;;;39.38;22.70;;;;;;;;;;4939532;29;20051;-76
2022/10/22 00:59:23;;;;;;;47.42;24.30;;;;;;;;;;4938925;29;20036;-76
2022/10/22 01:02:08;;;;;;;46.95;24.85;;;;;;;;;;4938870;29;20039;-76
2022/10/22 01:04:53;;;;;;;44.00;23.77;;;;;;;;;;4945120;29;20039;-76
2022/10/22 01:07:46;;;;;;;52.33;26.55;;;;;;;;;;4938990;29;20039;-75
2022/10/22 01:10:45;;;;;;;47.10;26.13;;;;;;;;;;4945101;29;20051;-75
2022/10/22 01:13:49;;;;;;;56.50;26.80;;;;;;;;;;4938742;29;20043;-76
2022/10/22 01:16:42;;;;;;;44.28;24.63;;;;;;;;;;4938602;29;20040;-76
2022/10/22 01:19:50;;;;;;;43.78;25.40;;;;;;;;;;4938584;29;20135;-76
2022/10/22 01:23:22;;;;;;;44.38;24.10;;;;;;;;;;4938523;29;20044;-76
2022/10/22 01:26:50;;;;;;;41.97;23.23;;;;;;;;;;4898808;29;20048;-76
2022/10/22 01:29:50;;;;;;;37.13;21.77;;;;;;;;;;4938308;29;20051;-76
2022/10/22 01:32:43;;;;;;;41.33;23.42;;;;;;;;;;4938209;29;20044;-76
2022/10/22 01:35:34;;;;;;;42.83;25.48;;;;;;;;;;4938607;29;20043;-76
2022/10/22 01:38:22;;;;;;;43.13;24.30;;;;;;;;;;4938253;29;20039;-76
2022/10/22 01:41:07;;;;;;;41.72;23.60;;;;;;;;;;4944412;29;20051;-76
2022/10/22 01:43:53;;;;;;;40.35;23.48;;;;;;;;;;4938051;29;20047;-76
2022/10/22 01:46:38;;;;;;;47.88;24.08;;;;;;;;;;4938059;29;20393;-76
2022/10/22 01:49:44;;;;;;;58.30;27.10;;;;;;;;;;4937993;29;20047;-75
2022/10/22 01:52:41;;;;;;;47.67;23.23;;;;;;;;;;4937558;29;20056;-75
2022/10/22 01:55:29;;;;;;;38.85;21.77;;;;;;;;;;4937200;29;20047;-77
2022/10/22 01:58:21;;;;;;;34.13;19.58;;;;;;;;;;4936690;29;20119;-77
2022/10/22 02:01:12;;;;;;;35.72;20.27;;;;;;;;;;4937793;29;20393;-77
2022/10/22 02:04:10;;;;;;;36.03;19.98;;;;;;;;;;4937785;29;20043;-76
2022/10/22 02:07:00;;;;;;;116.75;52.88;;;;;;;;;;4937559;29;20048;-76
2022/10/22 02:09:47;;;;;;;46.20;26.38;;;;;;;;;;4937949;29;20043;-76
2022/10/22 02:12:34;;;;;;;43.03;21.10;;;;;;;;;;4937774;29;20039;-76
2022/10/22 02:15:22;;;;;;;41.08;21.10;;;;;;;;;;4937477;29;20043;-76
2022/10/22 02:18:09;;;;;;;34.10;19.77;;;;;;;;;;4937828;29;20052;-76
2022/10/22 02:20:57;;;;;;;31.25;17.60;;;;;;;;;;4937340;29;20047;-76
2022/10/22 02:23:42;;;;;;;32.33;18.75;;;;;;;;;;4943758;29;20047;-75
2022/10/22 02:26:32;;;;;;;29.80;18.75;;;;;;;;;;4943788;29;20040;-76
2022/10/22 02:29:25;;;;;;;31.02;18.80;;;;;;;;;;4937191;29;20047;-76
2022/10/22 02:32:18;;;;;;;28.15;18.23;;;;;;;;;;4937218;29;20044;-76
2022/10/22 02:35:04;;;;;;;35.85;19.73;;;;;;;;;;4937312;29;20059;-75
2022/10/22 02:37:51;;;;;;;38.25;19.25;;;;;;;;;;4937352;29;20044;-76
2022/10/22 02:40:37;;;;;;;29.75;16.90;;;;;;;;;;4937323;29;20039;-76
2022/10/22 02:43:24;;;;;;;29.52;15.20;;;;;;;;;;4936712;29;20052;-76
2022/10/22 02:46:10;;;;;;;25.02;15.02;;;;;;;;;;4937290;29;20394;-76
2022/10/22 02:48:54;;;;;;;22.90;14.07;;;;;;;;;;4936864;29;20044;-75
2022/10/22 02:51:39;;;;;;;33.88;18.58;;;;;;;;;;4936584;29;20055;-75
2022/10/22 02:54:25;;;;;;;23.10;13.60;;;;;;;;;;4936899;29;20044;-76
2022/10/22 02:57:10;;;;;;;26.90;14.73;;;;;;;;;;4936829;29;20051;-75
2022/10/22 02:59:56;;;;;;;23.42;14.55;;;;;;;;;;4937102;29;20048;-75
2022/10/22 03:02:41;;;;;;;28.35;16.50;;;;;;;;;;4936771;29;20047;-76
2022/10/22 03:05:27;;;;;;;28.75;16.00;;;;;;;;;;4937153;29;20043;-76
2022/10/22 03:08:13;;;;;;;24.67;15.65;;;;;;;;;;4937167;29;20059;-76
2022/10/22 03:10:58;;;;;;;25.00;15.50;;;;;;;;;;4936851;29;20051;-76
2022/10/22 03:13:44;;;;;;;29.80;16.20;;;;;;;;;;4936692;29;20048;-77
2022/10/22 03:16:29;;;;;;;29.02;16.40;;;;;;;;;;4936988;29;20043;-77
2022/10/22 03:19:15;;;;;;;31.88;17.33;;;;;;;;;;4943178;29;20398;-77
2022/10/22 03:22:14;;;;;;;31.83;18.08;;;;;;;;;;4936491;29;20036;-77
2022/10/22 03:25:06;;;;;;;29.08;16.02;;;;;;;;;;4936533;29;20039;-78
2022/10/22 03:27:55;;;;;;;35.67;18.30;;;;;;;;;;4936390;29;20039;-77
2022/10/22 03:30:40;;;;;;;35.13;17.90;;;;;;;;;;4936724;29;20048;-77
2022/10/22 03:33:26;;;;;;;34.47;18.63;;;;;;;;;;4942874;29;20036;-77
2022/10/22 03:36:12;;;;;;;30.20;18.25;;;;;;;;;;4937291;29;20482;-76
2022/10/22 03:38:59;;;;;;;41.25;21.98;;;;;;;;;;4936368;29;20043;-77
2022/10/22 03:41:45;;;;;;;38.40;20.00;;;;;;;;;;4936515;29;20039;-76
2022/10/22 03:44:31;;;;;;;37.60;20.33;;;;;;;;;;4936277;29;20041;-77
2022/10/22 03:47:17;;;;;;;36.65;18.67;;;;;;;;;;4936516;29;20048;-77
2022/10/22 03:50:04;;;;;;;31.52;17.85;;;;;;;;;;4936669;29;20049;-77
2022/10/22 03:52:52;;;;;;;32.15;17.05;;;;;;;;;;4936115;29;20077;-77
2022/10/22 03:55:40;;;;;;;26.77;16.85;;;;;;;;;;4936322;29;20048;-77
2022/10/22 03:58:25;;;;;;;30.20;16.90;;;;;;;;;;4936230;29;20485;-76
2022/10/22 04:01:12;;;;;;;28.33;16.80;;;;;;;;;;4936409;29;20398;-77
2022/10/22 04:03:58;;;;;;;27.67;16.55;;;;;;;;;;4936114;29;20044;-77
2022/10/22 04:06:43;;;;;;;28.83;16.30;;;;;;;;;;4936195;29;20051;-76
2022/10/22 04:09:33;;;;;;;31.92;18.02;;;;;;;;;;4936138;29;20044;-76
2022/10/22 04:12:18;;;;;;;33.67;18.63;;;;;;;;;;4935823;29;20427;-77
2022/10/22 04:15:04;;;;;;;33.78;18.65;;;;;;;;;;4942528;29;20048;-77
2022/10/22 04:17:49;;;;;;;32.30;17.60;;;;;;;;;;4937692;29;20047;-76
2022/10/22 04:20:35;;;;;;;46.45;19.42;;;;;;;;;;4939485;29;20043;-76
2022/10/22 04:23:21;;;;;;;30.85;19.23;;;;;;;;;;4939491;29;20043;-76
2022/10/22 04:26:07;;;;;;;44.10;23.10;;;;;;;;;;4945980;29;20051;-77
2022/10/22 04:28:52;;;;;;;38.55;19.55;;;;;;;;;;4939366;29;20051;-76
2022/10/22 04:31:37;;;;;;;34.15;20.42;;;;;;;;;;4939689;29;20394;-77
2022/10/22 04:34:26;;;;;;;38.85;19.05;;;;;;;;;;4939509;29;20051;-77
2022/10/22 04:37:12;;;;;;;33.45;19.35;;;;;;;;;;4945714;29;20043;-77
2022/10/22 04:39:57;;;;;;;37.70;19.52;;;;;;;;;;4945556;29;20390;-77
2022/10/22 04:42:42;;;;;;;33.50;19.77;;;;;;;;;;4939092;29;20509;-77
2022/10/22 04:45:28;;;;;;;36.10;19.95;;;;;;;;;;4939182;29;20047;-77
2022/10/22 04:48:14;;;;;;;32.72;19.15;;;;;;;;;;4939408;29;20048;-76
2022/10/22 04:50:59;;;;;;;35.75;20.83;;;;;;;;;;4939072;29;20052;-77
2022/10/22 04:53:45;;;;;;;33.72;19.40;;;;;;;;;;4939076;29;20040;-77
2022/10/22 04:56:31;;;;;;;42.50;20.65;;;;;;;;;;4938943;29;20442;-74
2022/10/22 04:59:16;;;;;;;36.38;20.42;;;;;;;;;;4938982;29;20047;-77
2022/10/22 05:02:02;;;;;;;34.67;20.50;;;;;;;;;;4938940;29;20047;-77
2022/10/22 05:04:47;;;;;;;43.38;25.25;;;;;;;;;;4938905;29;20048;-77
2022/10/22 05:07:33;;;;;;;52.78;26.38;;;;;;;;;;4945442;29;20482;-77
2022/10/22 05:10:18;;;;;;;47.85;24.25;;;;;;;;;;4938306;29;20056;-77
2022/10/22 05:13:04;;;;;;;43.15;22.10;;;;;;;;;;4938620;29;20040;-77
2022/10/22 05:15:50;;;;;;;39.38;20.83;;;;;;;;;;4938705;29;20055;-77
2022/10/22 05:18:38;;;;;;;40.47;20.73;;;;;;;;;;4938875;29;20051;-76
2022/10/22 05:21:23;;;;;;;42.85;21.85;;;;;;;;;;4938523;29;20055;-76
2022/10/22 05:24:09;;;;;;;50.17;21.90;;;;;;;;;;4938223;29;20040;-76
2022/10/22 05:26:56;;;;;;;43.85;21.92;;;;;;;;;;4938738;29;20103;-76
2022/10/22 05:29:42;;;;;;;43.85;22.85;;;;;;;;;;4937295;29;20052;-77
2022/10/22 05:32:27;;;;;;;44.42;25.70;;;;;;;;;;4938317;29;20359;-77
2022/10/22 05:35:13;;;;;;;50.15;27.63;;;;;;;;;;4938860;29;20493;-76
2022/10/22 05:37:57;;;;;;;63.85;31.73;;;;;;;;;;4944536;29;20043;-76
2022/10/22 05:40:44;;;;;;;57.70;30.88;;;;;;;;;;4944795;29;20338;-77
2022/10/22 05:43:28;;;;;;;58.33;30.10;;;;;;;;;;4938078;29;20039;-77
2022/10/22 05:46:20;;;;;;;66.15;34.58;;;;;;;;;;4937936;29;20500;-76
2022/10/22 05:49:06;;;;;;;65.20;35.92;;;;;;;;;;4937953;29;20051;-77
2022/10/22 05:51:51;;;;;;;69.55;39.08;;;;;;;;;;4937303;29;20059;-77
2022/10/22 05:54:37;;;;;;;73.60;38.03;;;;;;;;;;4937859;29;20047;-77
2022/10/22 05:57:22;;;;;;;68.30;35.55;;;;;;;;;;4938139;29;20051;-77
2022/10/22 06:00:09;;;;;;;56.65;32.63;;;;;;;;;;4938133;29;20047;-76
2022/10/22 06:02:54;;;;;;;47.42;28.08;;;;;;;;;;4944593;29;20044;-76
2022/10/22 06:05:39;;;;;;;51.75;25.35;;;;;;;;;;4938449;29;20401;-78
2022/10/22 06:08:25;;;;;;;86.15;40.00;;;;;;;;;;4938078;29;20051;-75
2022/10/22 06:11:10;;;;;;;60.40;30.27;;;;;;;;;;4943984;29;20051;-78
2022/10/22 06:13:55;;;;;;;98.20;51.28;;;;;;;;;;4937599;29;20047;-76
2022/10/22 06:16:41;;;;;;;87.72;44.42;;;;;;;;;;4938166;29;20490;-77
2022/10/22 06:19:26;;;;;;;73.18;36.30;;;;;;;;;;4943740;29;20048;-77
2022/10/22 06:22:12;;;;;;;54.72;29.77;;;;;;;;;;4937159;29;20048;-76
2022/10/22 06:24:57;;;;;;;54.08;31.13;;;;;;;;;;4937260;29;20494;-76
2022/10/22 06:27:48;;;;;;;52.00;30.35;;;;;;;;;;4937281;29;20047;-77
2022/10/22 06:30:33;;;;;;;56.83;30.45;;;;;;;;;;4943182;29;20048;-74
2022/10/22 06:33:19;;;;;;;67.70;34.92;;;;;;;;;;4936939;29;20401;-76
2022/10/22 06:36:09;;;;;;;60.35;32.63;;;;;;;;;;4939475;29;20048;-78
2022/10/22 06:38:55;;;;;;;60.75;31.15;;;;;;;;;;4936999;29;20389;-75
2022/10/22 06:41:41;;;;;;;63.55;35.45;;;;;;;;;;4936571;29;20060;-76
2022/10/22 06:44:26;;;;;;;66.38;33.42;;;;;;;;;;4943101;29;20056;-76
2022/10/22 06:47:12;;;;;;;45.15;26.20;;;;;;;;;;4936954;29;20056;-76
2022/10/22 06:49:57;;;;;;;41.42;25.70;;;;;;;;;;4936169;29;20040;-75
2022/10/22 06:52:42;;;;;;;42.67;25.15;;;;;;;;;;4936910;29;20044;-76
2022/10/22 06:55:28;;;;;;;45.15;25.58;;;;;;;;;;4936533;29;20043;-76
2022/10/22 06:58:14;;;;;;;50.75;26.35;;;;;;;;;;4943227;29;20417;-76
2022/10/22 07:01:04;;;;;;;50.40;27.48;;;;;;;;;;4936443;29;20483;-80
2022/10/22 07:03:51;;;;;;;34.30;19.77;;;;;;;;;;4936309;29;20043;-75
2022/10/22 07:06:36;;;;;;;41.42;21.10;;;;;;;;;;4936415;29;20048;-81
2022/10/22 07:09:23;;;;;;;35.95;19.98;;;;;;;;;;4941875;29;20047;-81
2022/10/22 07:12:08;;;;;;;39.33;22.38;;;;;;;;;;4936507;29;20039;-81
2022/10/22 07:14:54;;;;;;;38.92;24.23;;;;;;;;;;4936304;29;20055;-76
2022/10/22 07:17:39;;;;;;;46.15;25.98;;;;;;;;;;4936473;29;20040;-79
2022/10/22 07:20:25;;;;;;;41.05;23.92;;;;;;;;;;4936591;29;20490;-78
2022/10/22 07:23:10;;;;;;;45.25;27.00;;;;;;;;;;4935939;29;20048;-78
2022/10/22 07:25:56;;;;;;;38.15;22.73;;;;;;;;;;4936121;29;20051;-77
2022/10/22 07:28:42;;;;;;;36.92;22.88;;;;;;;;;;4935993;29;20056;-78
2022/10/22 07:31:28;;;;;;;39.70;22.75;;;;;;;;;;4942194;29;20051;-76
2022/10/22 07:34:13;;;;;;;38.55;22.17;;;;;;;;;;4942599;29;20549;-76
2022/10/22 07:36:59;;;;;;;33.97;18.60;;;;;;;;;;4936345;29;20059;-76
2022/10/22 07:39:45;;;;;;;34.38;20.55;;;;;;;;;;4942242;29;20051;-76
2022/10/22 07:42:31;;;;;;;43.22;19.58;;;;;;;;;;4942476;29;20413;-76
2022/10/22 07:45:16;;;;;;;30.83;19.75;;;;;;;;;;4937270;29;20044;-76
2022/10/22 07:48:02;;;;;;;30.83;20.05;;;;;;;;;;4936178;29;20048;-76
2022/10/22 07:50:51;;;;;;;33.63;17.83;;;;;;;;;;4935915;29;20052;-78
2022/10/22 07:53:36;;;;;;;23.77;15.15;;;;;;;;;;4939139;29;20040;-76
2022/10/22 07:56:21;;;;;;;26.10;15.75;;;;;;;;;;4939848;29;20055;-77
2022/10/22 07:59:07;;;;;;;34.28;16.70;;;;;;;;;;4940046;29;20048;-76
2022/10/22 08:01:53;;;;;;;30.88;15.82;;;;;;;;;;4940092;29;20047;-77
2022/10/22 08:04:38;;;;;;;30.10;15.82;;;;;;;;;;4940124;29;20087;-75
2022/10/22 08:07:24;;;;;;;24.67;13.32;;;;;;;;;;4939637;29;20503;-75
2022/10/22 08:10:10;;;;;;;28.90;13.60;;;;;;;;;;4946431;29;20047;-75
2022/10/22 08:12:56;;;;;;;29.17;15.20;;;;;;;;;;4939443;29;20036;-77
2022/10/22 08:15:42;;;;;;;40.88;23.92;;;;;;;;;;4939929;29;20055;-76
2022/10/22 08:18:29;;;;;;;40.65;20.90;;;;;;;;;;4939486;29;20047;-76
2022/10/22 08:21:14;;;;;;;42.40;24.67;;;;;;;;;;4939246;29;20047;-77
2022/10/22 08:23:59;;;;;;;31.83;18.30;;;;;;;;;;4939161;29;20406;-76
2022/10/22 08:26:44;;;;;;;28.55;15.82;;;;;;;;;;4945626;29;20047;-76
2022/10/22 08:29:29;;;;;;;26.20;16.20;;;;;;;;;;4945430;29;20497;-76
2022/10/22 08:32:15;;;;;;;27.95;16.17;;;;;;;;;;4938855;29;20051;-76
2022/10/22 08:35:01;;;;;;;28.30;16.05;;;;;;;;;;4939401;29;20048;-76
2022/10/22 08:37:46;;;;;;;25.13;14.52;;;;;;;;;;4939047;29;20051;-76
2022/10/22 08:40:38;;;;;;;30.35;16.60;;;;;;;;;;4945028;29;20489;-76
2022/10/22 08:44:18;;;;;;;30.33;16.13;;;;;;;;;;4938616;29;20043;-77
2022/10/22 08:47:14;;;;;;;23.27;13.45;;;;;;;;;;4843249;29;20045;-76
2022/10/22 08:50:00;;;;;;;21.23;12.80;;;;;;;;;;4938571;29;20043;-76
2022/10/22 08:52:50;;;;;;;22.55;12.93;;;;;;;;;;4938826;29;20040;-76
2022/10/22 08:55:37;;;;;;;27.05;13.80;;;;;;;;;;4939030;29;20405;-76
2022/10/22 08:58:52;;;;;;;27.30;12.23;;;;;;;;;;4945115;29;20044;-76
2022/10/22 09:01:42;;;;;;;20.80;13.02;;;;;;;;;;4938120;29;20491;-76
2022/10/22 09:04:47;;;;;;;25.27;12.60;;;;;;;;;;4936601;29;20048;-76
2022/10/22 09:07:33;;;;;;;21.25;10.63;;;;;;;;;;4930085;29;20051;-76
2022/10/22 09:10:23;;;;;;;23.40;10.70;;;;;;;;;;4942292;29;20047;-76
2022/10/22 09:13:14;;;;;;;21.70;10.95;;;;;;;;;;4938802;29;20044;-76
2022/10/22 09:16:11;;;;;;;23.23;12.00;;;;;;;;;;4937537;29;20490;-76
2022/10/22 09:19:08;;;;;;;24.25;10.63;;;;;;;;;;4943053;29;20051;-76
2022/10/22 09:22:19;;;;;;;16.17;8.18;;;;;;;;;;4938205;29;20498;-75
2022/10/22 09:25:20;;;;;;;13.48;7.57;;;;;;;;;;4937792;29;20048;-75
2022/10/22 09:28:08;;;;;;;17.20;8.15;;;;;;;;;;4938571;29;20389;-75
2022/10/22 09:30:54;;;;;;;12.20;7.72;;;;;;;;;;4938424;29;20051;-76
2022/10/22 09:33:41;;;;;;;15.88;7.97;;;;;;;;;;4938283;29;20389;-76
2022/10/22 09:36:28;;;;;;;14.60;6.97;;;;;;;;;;4939191;29;20114;-77
2022/10/22 09:39:26;;;;;;;16.02;7.50;;;;;;;;;;4938172;29;20047;-76
2022/10/22 09:42:17;;;;;;;17.35;8.75;;;;;;;;;;4938011;29;20044;-75
2022/10/22 09:45:03;;;;;;;22.25;10.02;;;;;;;;;;4943420;29;20039;-77
2022/10/22 09:47:48;;;;;;;16.90;8.15;;;;;;;;;;4938200;29;20052;-76
2022/10/22 09:50:57;;;;;;;17.10;7.63;;;;;;;;;;4937899;29;20043;-75
2022/10/22 09:53:55;;;;;;;12.07;7.00;;;;;;;;;;4938135;29;20043;-76
2022/10/22 09:56:45;;;;;;;15.07;7.30;;;;;;;;;;4937597;29;20405;-76
2022/10/22 09:59:35;;;;;;;16.40;7.78;;;;;;;;;;4937936;29;20494;-76
2022/10/22 10:02:23;;;;;;;13.68;6.75;;;;;;;;;;4938004;29;20431;-77
2022/10/22 10:05:26;;;;;;;15.55;6.85;;;;;;;;;;4937847;29;20498;-77
2022/10/22 10:08:14;;;;;;;16.05;7.28;;;;;;;;;;4937690;29;20048;-76
2022/10/22 10:11:09;;;;;;;12.15;6.72;;;;;;;;;;4937191;29;20047;-76
2022/10/22 10:13:59;;;;;;;13.90;6.55;;;;;;;;;;4937801;29;20486;-76
2022/10/22 10:17:06;;;;;;;15.68;6.07;;;;;;;;;;4936756;29;20051;-77
2022/10/22 10:20:16;;;;;;;20.98;7.38;;;;;;;;;;4942761;29;20043;-77
2022/10/22 10:23:20;;;;;;;25.00;7.70;;;;;;;;;;4938014;29;20051;-76
2022/10/22 10:26:35;;;;;;;13.32;6.68;;;;;;;;;;4937249;29;20044;-76
2022/10/22 10:29:32;;;;;;;13.93;6.85;;;;;;;;;;4915594;29;20055;-75
2022/10/22 10:32:30;;;;;;;12.95;7.00;;;;;;;;;;4937427;29;20482;-76
2022/10/22 10:35:25;;;;;;;13.80;7.45;;;;;;;;;;4937101;29;20486;-76
2022/10/22 10:38:18;;;;;;;13.10;7.00;;;;;;;;;;4936694;29;20398;-76
2022/10/22 10:41:16;;;;;;;20.15;6.93;;;;;;;;;;4936957;29;20052;-76
2022/10/22 10:44:04;;;;;;;14.30;7.63;;;;;;;;;;4936785;29;20052;-77
2022/10/22 10:47:05;;;;;;;21.67;7.47;;;;;;;;;;4936953;29;20051;-76
2022/10/22 10:49:55;;;;;;;11.10;6.80;;;;;;;;;;4936806;29;20036;-78
2022/10/22 10:52:50;;;;;;;13.48;6.65;;;;;;;;;;4936653;29;20051;-76
2022/10/22 10:55:46;;;;;;;11.63;6.38;;;;;;;;;;4936563;29;20039;-78
2022/10/22 10:58:45;;;;;;;14.77;7.13;;;;;;;;;;4936490;29;20047;-79
2022/10/22 11:01:58;;;;;;;17.45;7.55;;;;;;;;;;4935711;29;20044;-77
2022/10/22 11:04:56;;;;;;;16.40;6.90;;;;;;;;;;4935328;29;20052;-77
2022/10/22 11:07:56;;;;;;;12.52;6.50;;;;;;;;;;4922155;29;20040;-78
2022/10/22 11:10:50;;;;;;;12.52;6.55;;;;;;;;;;4936813;29;20043;-77
2022/10/22 11:13:44;;;;;;;13.40;5.75;;;;;;;;;;4936513;29;20044;-78
2022/10/22 11:16:45;;;;;;;15.48;6.10;;;;;;;;;;4936873;29;20052;-76
2022/10/22 11:19:39;;;;;;;15.73;6.30;;;;;;;;;;4942740;29;20051;-76
2022/10/22 11:22:31;;;;;;;16.23;5.88;;;;;;;;;;4942827;29;20059;-76
2022/10/22 11:25:21;;;;;;;13.23;6.50;;;;;;;;;;4941816;29;20047;-76
2022/10/22 11:28:13;;;;;;;25.23;6.85;;;;;;;;;;4936168;29;20073;-76
2022/10/22 11:31:15;;;;;;;16.38;6.65;;;;;;;;;;4942988;29;20478;-77
2022/10/22 11:34:35;;;;;;;11.52;6.07;;;;;;;;;;4936193;29;20048;-77
2022/10/22 11:37:23;;;;;;;18.33;8.63;;;;;;;;;;4936324;29;20493;-76
2022/10/22 11:40:22;;;;;;;14.10;6.22;;;;;;;;;;4942778;29;20052;-76
2022/10/22 11:43:24;;;;;;;16.05;8.20;;;;;;;;;;4936227;29;20493;-76
2022/10/22 11:46:15;;;;;;;89.78;33.45;;;;;;;;;;4943100;29;20048;-75
2022/10/22 11:49:12;;;;;;;190.68;88.25;;;;;;;;;;4936208;29;20040;-75
2022/10/22 11:52:36;;;;;;;16.95;7.82;;;;;;;;;;4935938;29;20047;-77
2022/10/22 11:55:34;;;;;;;15.68;7.18;;;;;;;;;;4935880;29;20036;-77
2022/10/22 11:58:22;;;;;;;10.73;6.22;;;;;;;;;;4936312;29;20059;-80
2022/10/22 12:01:08;;;;;;;14.60;5.82;;;;;;;;;;4936147;29;20047;-78
2022/10/22 12:03:56;;;;;;;14.20;6.32;;;;;;;;;;4935952;29;20402;-77
2022/10/22 12:06:55;;;;;;;18.08;6.60;;;;;;;;;;4936186;29;20039;-77
2022/10/22 12:09:41;;;;;;;32.65;11.80;;;;;;;;;;4935621;29;20052;-77
2022/10/22 12:12:28;;;;;;;22.33;7.75;;;;;;;;;;4942007;29;20047;-76
2022/10/22 12:15:26;;;;;;;22.80;7.90;;;;;;;;;;4942217;29;20043;-78
2022/10/22 12:18:15;;;;;;;21.27;8.88;;;;;;;;;;4942171;29;20494;-79
2022/10/22 12:21:00;;;;;;;16.05;7.03;;;;;;;;;;4936156;29;20040;-77
2022/10/22 12:23:45;;;;;;;15.63;7.15;;;;;;;;;;4941952;29;20048;-77
2022/10/22 12:26:35;;;;;;;82.25;34.20;;;;;;;;;;4935981;29;20051;-77
2022/10/22 12:29:25;;;;;;;23.75;9.98;;;;;;;;;;4942133;29;20039;-75
2022/10/22 12:32:13;;;;;;;20.77;8.77;;;;;;;;;;4935830;29;20048;-76
2022/10/22 12:35:04;;;;;;;23.92;9.50;;;;;;;;;;4935734;29;20036;-76
2022/10/22 12:38:07;;;;;;;21.85;8.70;;;;;;;;;;4934729;29;20158;-77
2022/10/22 12:40:55;;;;;;;88.47;30.50;;;;;;;;;;4938750;29;20095;-77
2022/10/22 12:43:40;;;;;;;93.70;31.52;;;;;;;;;;4933480;29;20052;-79
2022/10/22 12:46:29;;;;;;;62.72;26.83;;;;;;;;;;4948381;29;20047;-77
2022/10/22 12:49:20;;;;;;;205.90;98.10;;;;;;;;;;4937573;29;20055;-77
2022/10/22 12:52:13;;;;;;;44.83;21.67;;;;;;;;;;4938736;29;20047;-76
2022/10/22 12:54:59;;;;;;;32.28;13.35;;;;;;;;;;4938978;29;20040;-76
2022/10/22 12:57:48;;;;;;;22.70;11.30;;;;;;;;;;4939122;29;20056;-76
2022/10/22 13:00:34;;;;;;;53.47;28.10;;;;;;;;;;4938832;29;20051;-78
2022/10/22 13:03:31;;;;;;;31.85;15.13;;;;;;;;;;4945348;29;20044;-75
2022/10/22 13:06:19;;;;;;;22.75;11.27;;;;;;;;;;4943961;29;20043;-76
2022/10/22 13:09:14;;;;;;;27.15;13.18;;;;;;;;;;4938814;29;20047;-75
2022/10/22 13:12:05;;;;;;;31.17;12.90;;;;;;;;;;4943895;29;20633;-78
2022/10/22 13:14:50;;;;;;;32.72;12.55;;;;;;;;;;4938332;29;20035;-79
2022/10/22 13:17:38;;;;;;;17.13;8.40;;;;;;;;;;4944396;29;20055;-77
2022/10/22 13:20:24;;;;;;;44.67;25.60;;;;;;;;;;4938277;29;20390;-77
2022/10/22 13:23:18;;;;;;;43.22;24.80;;;;;;;;;;4944694;29;20043;-77
2022/10/22 13:26:12;;;;;;;27.40;12.10;;;;;;;;;;4944770;29;20059;-76
2022/10/22 13:29:00;;;;;;;43.60;24.20;;;;;;;;;;4944464;29;20357;-76
2022/10/22 13:31:52;;;;;;;24.42;11.20;;;;;;;;;;4937395;29;20047;-76
2022/10/22 13:34:38;;;;;;;27.77;12.65;;;;;;;;;;4937838;29;20035;-76
2022/10/22 13:37:24;;;;;;;23.52;9.90;;;;;;;;;;4937856;29;20039;-76
2022/10/22 13:40:12;;;;;;;26.27;11.38;;;;;;;;;;4937657;29;20047;-76
2022/10/22 13:42:57;;;;;;;35.78;19.33;;;;;;;;;;4937663;29;20043;-77
2022/10/22 13:45:45;;;;;;;26.10;11.93;;;;;;;;;;4943915;29;20390;-78
2022/10/22 13:48:31;;;;;;;25.25;10.40;;;;;;;;;;4944392;29;20486;-76
2022/10/22 13:51:24;;;;;;;24.23;9.70;;;;;;;;;;4936521;29;20056;-76
2022/10/22 13:54:19;;;;;;;17.58;9.13;;;;;;;;;;4938086;29;20036;-76
2022/10/22 13:57:08;;;;;;;20.80;9.30;;;;;;;;;;4937973;29;20051;-78
2022/10/22 13:59:53;;;;;;;23.88;10.80;;;;;;;;;;4937787;29;20035;-77
2022/10/22 14:02:40;;;;;;;25.63;9.48;;;;;;;;;;4937670;29;20485;-77
2022/10/22 14:05:26;;;;;;;17.92;8.90;;;;;;;;;;4937384;29;20047;-76
2022/10/22 14:08:14;;;;;;;20.05;9.07;;;;;;;;;;4937775;29;20051;-77
2022/10/22 14:10:59;;;;;;;21.77;8.82;;;;;;;;;;4944270;29;20047;-77
2022/10/22 14:13:45;;;;;;;21.23;9.52;;;;;;;;;;4938020;29;20191;-76
2022/10/22 14:16:32;;;;;;;25.35;10.68;;;;;;;;;;4937597;29;20485;-77
2022/10/22 14:19:17;;;;;;;20.63;9.38;;;;;;;;;;4943665;29;20047;-76
2022/10/22 14:22:03;;;;;;;20.98;8.88;;;;;;;;;;4937683;29;20043;-78
2022/10/22 14:24:50;;;;;;;18.33;8.45;;;;;;;;;;4937199;29;20047;-76
2022/10/22 14:27:37;;;;;;;24.35;9.30;;;;;;;;;;4943934;29;20051;-78
2022/10/22 14:30:24;;;;;;;16.10;8.25;;;;;;;;;;4937176;29;20051;-78
2022/10/22 14:33:19;;;;;;;23.08;9.10;;;;;;;;;;4943500;29;20048;-76
2022/10/22 14:36:05;;;;;;;17.35;8.77;;;;;;;;;;4937005;29;20043;-77
2022/10/22 14:38:50;;;;;;;19.80;8.90;;;;;;;;;;4936872;29;20056;-77
2022/10/22 14:41:36;;;;;;;19.10;8.73;;;;;;;;;;4936811;29;20405;-76
2022/10/22 14:44:22;;;;;;;19.17;8.07;;;;;;;;;;4943182;29;20039;-79
2022/10/22 14:47:08;;;;;;;23.13;8.55;;;;;;;;;;4937218;29;20043;-79
2022/10/22 14:49:54;;;;;;;16.90;8.02;;;;;;;;;;4942921;29;20051;-79
2022/10/22 14:52:42;;;;;;;15.27;8.38;;;;;;;;;;4943270;29;20047;-77
2022/10/22 14:55:27;;;;;;;17.50;8.98;;;;;;;;;;4937276;29;20047;-79
2022/10/22 14:58:14;;;;;;;17.13;9.00;;;;;;;;;;4936575;29;20047;-79
2022/10/22 15:01:01;;;;;;;17.55;9.05;;;;;;;;;;4942488;29;20051;-79
2022/10/22 15:03:46;;;;;;;29.85;12.23;;;;;;;;;;4942703;29;20055;-78
2022/10/22 15:06:32;;;;;;;25.02;11.23;;;;;;;;;;4936452;29;20051;-80
2022/10/22 15:09:17;;;;;;;20.67;10.50;;;;;;;;;;4942704;29;20039;-76
2022/10/22 15:12:03;;;;;;;28.35;10.57;;;;;;;;;;4936538;29;20044;-79
2022/10/22 15:14:49;;;;;;;22.45;10.43;;;;;;;;;;4942853;29;20047;-80
2022/10/22 15:17:34;;;;;;;44.05;22.17;;;;;;;;;;4936342;29;20043;-76
2022/10/22 15:20:20;;;;;;;31.98;12.90;;;;;;;;;;4936474;29;20048;-78
2022/10/22 15:23:05;;;;;;;47.35;18.30;;;;;;;;;;4936445;29;20052;-76
2022/10/22 15:25:52;;;;;;;33.40;12.65;;;;;;;;;;4936030;29;20040;-79
2022/10/22 15:28:38;;;;;;;26.45;11.48;;;;;;;;;;4936076;29;20047;-79
2022/10/22 15:31:45;;;;;;;21.10;11.35;;;;;;;;;;4936623;29;20043;-76
2022/10/22 15:34:35;;;;;;;25.15;11.10;;;;;;;;;;4936433;29;20051;-76
2022/10/22 15:37:21;;;;;;;24.95;11.60;;;;;;;;;;4942736;29;20044;-77
2022/10/22 15:40:07;;;;;;;26.23;11.32;;;;;;;;;;4942243;29;20051;-79
2022/10/22 15:42:53;;;;;;;26.15;11.35;;;;;;;;;;4939290;29;20043;-78
2022/10/22 15:45:38;;;;;;;99.75;38.70;;;;;;;;;;4935718;29;20052;-77
2022/10/22 15:48:24;;;;;;;64.03;28.10;;;;;;;;;;4942771;29;20043;-80
2022/10/22 15:51:15;;;;;;;36.80;21.30;;;;;;;;;;4936103;29;20048;-78
2022/10/22 15:54:01;;;;;;;41.00;22.85;;;;;;;;;;4942369;29;20040;-78
2022/10/22 15:56:47;;;;;;;63.13;33.95;;;;;;;;;;4936184;29;20047;-76
2022/10/22 15:59:32;;;;;;;84.88;41.88;;;;;;;;;;4936170;29;20036;-77
2022/10/22 16:02:17;;;;;;;85.03;43.70;;;;;;;;;;4936408;29;20486;-79
2022/10/22 16:05:04;;;;;;;103.20;47.85;;;;;;;;;;4935764;29;20043;-77
2022/10/22 16:07:51;;;;;;;120.63;60.25;;;;;;;;;;4935938;29;20059;-77
2022/10/22 16:10:44;;;;;;;106.85;56.90;;;;;;;;;;4942066;29;20051;-79
2022/10/22 16:13:30;;;;;;;118.53;59.95;;;;;;;;;;4936754;29;20043;-77
2022/10/22 16:16:16;;;;;;;204.13;82.65;;;;;;;;;;4940119;29;20036;-75
2022/10/22 16:19:01;;;;;;;130.95;71.20;;;;;;;;;;4939816;29;20051;-78
2022/10/22 16:21:52;;;;;;;116.70;59.97;;;;;;;;;;4939595;29;20048;-80
2022/10/22 16:24:39;;;;;;;134.43;66.30;;;;;;;;;;4939864;29;20052;-77
2022/10/22 16:27:25;;;;;;;141.98;65.88;;;;;;;;;;4940434;29;20047;-78